97IL weather

Graham Hospital Heliport
Canton, Illinois, United States

Public forecast

Using degrees Fahrenheit for public forecast. Weather courtesy of forecast.io.

Closest aviation weather report (METAR) to Graham Hospital Heliport

Closest report is General Wayne A. Downing Peoria International Airport, 17.0 nm (31.6 km) ENE. Retrieved 2019/12/09 19:54 UTC (1 hour ago):

KPIA 091954Z 29014G26KT 8SM BKN017 OVC023 09/06 A2955 RMK AO2 PK WND 28026/1948 SLP007 T00940056

Closest aviation forecast (TAF) to Graham Hospital Heliport

Closest forecast is General Wayne A. Downing Peoria International Airport, 17.0 nm (31.6 km) ENE. Retrieved 2019/12/09 18:42 UTC (2 hours ago):

TAF KPIA 091741Z 0918/1018 24010KT 4SM -DZ BR VCSH BKN006 OVC012 FM092100 28015G25KT P6SM OVC012 FM092300 29016G28KT P6SM OVC020 FM100300 30012G22KT P6SM SCT040 FM101100 29008KT P6SM SCT250